sensor_id;sensor_type;location;lat;lon;timestamp;P1;durP1;ratioP1;P2;durP2;ratioP2
5811;SDS011;2932;52.400;9.558;2023-11-21T00:02:02;15.53;;;7.30;;
5811;SDS011;2932;52.400;9.558;2023-11-21T00:04:29;17.77;;;7.53;;
5811;SDS011;2932;52.400;9.558;2023-11-21T00:06:54;12.67;;;7.33;;
5811;SDS011;2932;52.400;9.558;2023-11-21T00:09:19;13.03;;;6.90;;
5811;SDS011;2932;52.400;9.558;2023-11-21T00:11:45;16.00;;;7.27;;
5811;SDS011;2932;52.400;9.558;2023-11-21T00:14:11;17.47;;;8.63;;
5811;SDS011;2932;52.400;9.558;2023-11-21T00:16:36;18.43;;;7.43;;
5811;SDS011;2932;52.400;9.558;2023-11-21T00:19:02;16.63;;;8.10;;
5811;SDS011;2932;52.400;9.558;2023-11-21T00:21:27;15.90;;;7.23;;
5811;SDS011;2932;52.400;9.558;2023-11-21T00:23:52;11.97;;;8.00;;
5811;SDS011;2932;52.400;9.558;2023-11-21T00:26:18;17.70;;;8.27;;
5811;SDS011;2932;52.400;9.558;2023-11-21T00:28:43;17.63;;;8.00;;
5811;SDS011;2932;52.400;9.558;2023-11-21T00:31:08;17.30;;;8.20;;
5811;SDS011;2932;52.400;9.558;2023-11-21T00:33:34;19.53;;;8.80;;
5811;SDS011;2932;52.400;9.558;2023-11-21T00:35:59;15.67;;;7.90;;
5811;SDS011;2932;52.400;9.558;2023-11-21T00:38:25;18.73;;;8.83;;
5811;SDS011;2932;52.400;9.558;2023-11-21T00:40:52;16.17;;;7.80;;
5811;SDS011;2932;52.400;9.558;2023-11-21T00:43:20;15.27;;;8.33;;
5811;SDS011;2932;52.400;9.558;2023-11-21T00:45:46;17.30;;;8.60;;
5811;SDS011;2932;52.400;9.558;2023-11-21T00:48:14;20.37;;;9.33;;
5811;SDS011;2932;52.400;9.558;2023-11-21T00:50:39;18.80;;;8.63;;
5811;SDS011;2932;52.400;9.558;2023-11-21T00:53:04;21.90;;;9.97;;
5811;SDS011;2932;52.400;9.558;2023-11-21T00:55:30;20.20;;;8.07;;
5811;SDS011;2932;52.400;9.558;2023-11-21T00:57:55;18.17;;;8.50;;
5811;SDS011;2932;52.400;9.558;2023-11-21T01:00:20;18.77;;;9.30;;
5811;SDS011;2932;52.400;9.558;2023-11-21T01:02:46;14.90;;;8.17;;
5811;SDS011;2932;52.400;9.558;2023-11-21T01:05:12;24.03;;;9.70;;
5811;SDS011;2932;52.400;9.558;2023-11-21T01:07:38;17.37;;;8.90;;
5811;SDS011;2932;52.400;9.558;2023-11-21T01:10:03;19.80;;;9.27;;
5811;SDS011;2932;52.400;9.558;2023-11-21T01:12:32;22.13;;;9.97;;
5811;SDS011;2932;52.400;9.558;2023-11-21T01:14:59;16.17;;;9.73;;
5811;SDS011;2932;52.400;9.558;2023-11-21T01:17:25;19.27;;;9.53;;
5811;SDS011;2932;52.400;9.558;2023-11-21T01:19:51;22.63;;;9.47;;
5811;SDS011;2932;52.400;9.558;2023-11-21T01:22:16;20.67;;;10.07;;
5811;SDS011;2932;52.400;9.558;2023-11-21T01:24:47;21.00;;;10.03;;
5811;SDS011;2932;52.400;9.558;2023-11-21T01:27:12;19.87;;;10.07;;
5811;SDS011;2932;52.400;9.558;2023-11-21T01:29:37;18.10;;;9.80;;
5811;SDS011;2932;52.400;9.558;2023-11-21T01:32:03;19.37;;;10.27;;
5811;SDS011;2932;52.400;9.558;2023-11-21T01:34:28;23.03;;;11.10;;
5811;SDS011;2932;52.400;9.558;2023-11-21T01:36:54;21.43;;;10.83;;
5811;SDS011;2932;52.400;9.558;2023-11-21T01:39:19;20.00;;;10.50;;
5811;SDS011;2932;52.400;9.558;2023-11-21T01:41:48;22.27;;;10.90;;
5811;SDS011;2932;52.400;9.558;2023-11-21T01:44:17;19.27;;;10.70;;
5811;SDS011;2932;52.400;9.558;2023-11-21T01:46:44;25.37;;;10.37;;
5811;SDS011;2932;52.400;9.558;2023-11-21T01:49:10;22.30;;;11.10;;
5811;SDS011;2932;52.400;9.558;2023-11-21T01:51:38;25.23;;;11.30;;
5811;SDS011;2932;52.400;9.558;2023-11-21T01:54:04;23.73;;;11.67;;
5811;SDS011;2932;52.400;9.558;2023-11-21T01:56:31;22.77;;;12.00;;
5811;SDS011;2932;52.400;9.558;2023-11-21T01:58:57;25.57;;;11.17;;
5811;SDS011;2932;52.400;9.558;2023-11-21T02:01:22;25.27;;;12.40;;
5811;SDS011;2932;52.400;9.558;2023-11-21T02:03:48;23.67;;;12.00;;
5811;SDS011;2932;52.400;9.558;2023-11-21T02:06:13;25.37;;;12.43;;
5811;SDS011;2932;52.400;9.558;2023-11-21T02:08:38;22.13;;;11.93;;
5811;SDS011;2932;52.400;9.558;2023-11-21T02:11:04;22.80;;;12.27;;
5811;SDS011;2932;52.400;9.558;2023-11-21T02:13:30;25.97;;;12.83;;
5811;SDS011;2932;52.400;9.558;2023-11-21T02:15:56;24.30;;;12.10;;
5811;SDS011;2932;52.400;9.558;2023-11-21T02:18:23;22.43;;;11.93;;
5811;SDS011;2932;52.400;9.558;2023-11-21T02:20:48;23.30;;;12.80;;
5811;SDS011;2932;52.400;9.558;2023-11-21T02:23:13;23.10;;;12.63;;
5811;SDS011;2932;52.400;9.558;2023-11-21T02:25:39;26.00;;;12.50;;
5811;SDS011;2932;52.400;9.558;2023-11-21T02:28:04;26.20;;;12.77;;
5811;SDS011;2932;52.400;9.558;2023-11-21T02:30:31;27.90;;;13.13;;
5811;SDS011;2932;52.400;9.558;2023-11-21T02:32:57;22.43;;;12.17;;
5811;SDS011;2932;52.400;9.558;2023-11-21T02:35:23;29.57;;;12.57;;
5811;SDS011;2932;52.400;9.558;2023-11-21T02:37:50;23.03;;;11.77;;
5811;SDS011;2932;52.400;9.558;2023-11-21T02:40:16;28.03;;;13.03;;
5811;SDS011;2932;52.400;9.558;2023-11-21T02:42:50;26.40;;;13.47;;
5811;SDS011;2932;52.400;9.558;2023-11-21T02:45:16;27.83;;;12.60;;
5811;SDS011;2932;52.400;9.558;2023-11-21T02:47:42;27.10;;;12.87;;
5811;SDS011;2932;52.400;9.558;2023-11-21T02:50:08;28.77;;;13.53;;
5811;SDS011;2932;52.400;9.558;2023-11-21T02:52:34;30.40;;;13.87;;
5811;SDS011;2932;52.400;9.558;2023-11-21T02:55:00;27.07;;;13.33;;
5811;SDS011;2932;52.400;9.558;2023-11-21T02:57:29;31.13;;;14.70;;
5811;SDS011;2932;52.400;9.558;2023-11-21T02:59:54;30.17;;;14.53;;
5811;SDS011;2932;52.400;9.558;2023-11-21T03:02:20;29.43;;;12.87;;
5811;SDS011;2932;52.400;9.558;2023-11-21T03:04:46;30.33;;;14.33;;
5811;SDS011;2932;52.400;9.558;2023-11-21T03:07:13;27.83;;;13.83;;
5811;SDS011;2932;52.400;9.558;2023-11-21T03:09:38;32.93;;;14.47;;
5811;SDS011;2932;52.400;9.558;2023-11-21T03:12:04;33.40;;;14.10;;
5811;SDS011;2932;52.400;9.558;2023-11-21T03:14:30;28.60;;;14.50;;
5811;SDS011;2932;52.400;9.558;2023-11-21T03:16:55;30.77;;;15.13;;
5811;SDS011;2932;52.400;9.558;2023-11-21T03:19:20;31.93;;;14.13;;
5811;SDS011;2932;52.400;9.558;2023-11-21T03:21:45;33.90;;;15.43;;
5811;SDS011;2932;52.400;9.558;2023-11-21T03:24:11;27.33;;;15.23;;
5811;SDS011;2932;52.400;9.558;2023-11-21T03:26:37;34.07;;;15.33;;
5811;SDS011;2932;52.400;9.558;2023-11-21T03:29:03;38.57;;;16.80;;
5811;SDS011;2932;52.400;9.558;2023-11-21T03:31:29;32.13;;;15.43;;
5811;SDS011;2932;52.400;9.558;2023-11-21T03:33:55;32.90;;;15.07;;
5811;SDS011;2932;52.400;9.558;2023-11-21T03:36:20;36.67;;;14.87;;
5811;SDS011;2932;52.400;9.558;2023-11-21T03:38:47;36.63;;;16.77;;
5811;SDS011;2932;52.400;9.558;2023-11-21T03:41:13;32.17;;;16.13;;
5811;SDS011;2932;52.400;9.558;2023-11-21T03:43:39;34.70;;;15.67;;
5811;SDS011;2932;52.400;9.558;2023-11-21T03:46:05;39.23;;;16.97;;
5811;SDS011;2932;52.400;9.558;2023-11-21T03:48:30;36.77;;;16.73;;
5811;SDS011;2932;52.400;9.558;2023-11-21T03:50:57;33.20;;;16.23;;
5811;SDS011;2932;52.400;9.558;2023-11-21T03:53:22;38.63;;;16.43;;
5811;SDS011;2932;52.400;9.558;2023-11-21T03:55:47;36.17;;;15.90;;
5811;SDS011;2932;52.400;9.558;2023-11-21T03:58:14;38.70;;;18.13;;
5811;SDS011;2932;52.400;9.558;2023-11-21T04:00:39;32.97;;;15.30;;
5811;SDS011;2932;52.400;9.558;2023-11-21T04:03:05;33.10;;;16.23;;
5811;SDS011;2932;52.400;9.558;2023-11-21T04:05:30;34.87;;;16.33;;
5811;SDS011;2932;52.400;9.558;2023-11-21T04:07:56;36.93;;;16.13;;
5811;SDS011;2932;52.400;9.558;2023-11-21T04:10:21;38.37;;;16.70;;
5811;SDS011;2932;52.400;9.558;2023-11-21T04:12:47;36.90;;;16.90;;
5811;SDS011;2932;52.400;9.558;2023-11-21T04:15:13;38.97;;;17.13;;
5811;SDS011;2932;52.400;9.558;2023-11-21T04:17:39;36.37;;;16.57;;
5811;SDS011;2932;52.400;9.558;2023-11-21T04:20:05;37.23;;;17.27;;
5811;SDS011;2932;52.400;9.558;2023-11-21T04:22:34;34.40;;;15.93;;
5811;SDS011;2932;52.400;9.558;2023-11-21T04:25:01;40.10;;;16.40;;
5811;SDS011;2932;52.400;9.558;2023-11-21T04:27:27;36.30;;;16.03;;
5811;SDS011;2932;52.400;9.558;2023-11-21T04:29:52;40.23;;;17.53;;
5811;SDS011;2932;52.400;9.558;2023-11-21T04:32:17;36.03;;;15.63;;
5811;SDS011;2932;52.400;9.558;2023-11-21T04:34:43;40.70;;;17.70;;
5811;SDS011;2932;52.400;9.558;2023-11-21T04:37:08;30.77;;;14.83;;
5811;SDS011;2932;52.400;9.558;2023-11-21T04:39:35;32.53;;;15.60;;
5811;SDS011;2932;52.400;9.558;2023-11-21T04:42:01;35.20;;;16.23;;
5811;SDS011;2932;52.400;9.558;2023-11-21T04:44:26;30.23;;;13.77;;
5811;SDS011;2932;52.400;9.558;2023-11-21T04:46:51;29.43;;;14.43;;
5811;SDS011;2932;52.400;9.558;2023-11-21T04:49:16;28.93;;;14.07;;
5811;SDS011;2932;52.400;9.558;2023-11-21T04:51:42;29.30;;;15.23;;
5811;SDS011;2932;52.400;9.558;2023-11-21T04:54:07;29.17;;;14.57;;
5811;SDS011;2932;52.400;9.558;2023-11-21T04:56:32;28.27;;;13.83;;
5811;SDS011;2932;52.400;9.558;2023-11-21T04:58:57;27.63;;;14.50;;
5811;SDS011;2932;52.400;9.558;2023-11-21T05:01:23;25.90;;;13.27;;
5811;SDS011;2932;52.400;9.558;2023-11-21T05:03:48;28.53;;;13.83;;
5811;SDS011;2932;52.400;9.558;2023-11-21T05:06:14;23.30;;;12.10;;
5811;SDS011;2932;52.400;9.558;2023-11-21T05:08:39;23.47;;;12.40;;
5811;SDS011;2932;52.400;9.558;2023-11-21T05:11:05;24.50;;;12.83;;
5811;SDS011;2932;52.400;9.558;2023-11-21T05:13:33;26.13;;;13.50;;
5811;SDS011;2932;52.400;9.558;2023-11-21T05:15:59;27.07;;;12.63;;
5811;SDS011;2932;52.400;9.558;2023-11-21T05:18:24;24.80;;;12.07;;
5811;SDS011;2932;52.400;9.558;2023-11-21T05:20:54;24.73;;;11.70;;
5811;SDS011;2932;52.400;9.558;2023-11-21T05:23:20;26.10;;;12.10;;
5811;SDS011;2932;52.400;9.558;2023-11-21T05:25:45;23.20;;;11.20;;
5811;SDS011;2932;52.400;9.558;2023-11-21T05:28:11;21.17;;;11.03;;
5811;SDS011;2932;52.400;9.558;2023-11-21T05:30:36;19.80;;;10.53;;
5811;SDS011;2932;52.400;9.558;2023-11-21T05:33:05;18.60;;;10.40;;
5811;SDS011;2932;52.400;9.558;2023-11-21T05:35:30;19.43;;;10.13;;
5811;SDS011;2932;52.400;9.558;2023-11-21T05:37:56;18.97;;;10.60;;
5811;SDS011;2932;52.400;9.558;2023-11-21T05:40:21;16.87;;;9.80;;
5811;SDS011;2932;52.400;9.558;2023-11-21T05:42:47;18.63;;;10.00;;
5811;SDS011;2932;52.400;9.558;2023-11-21T05:45:13;16.80;;;9.07;;
5811;SDS011;2932;52.400;9.558;2023-11-21T05:47:39;16.83;;;9.27;;
5811;SDS011;2932;52.400;9.558;2023-11-21T05:50:06;15.73;;;8.80;;
5811;SDS011;2932;52.400;9.558;2023-11-21T05:52:35;13.80;;;8.90;;
5811;SDS011;2932;52.400;9.558;2023-11-21T05:55:02;15.17;;;8.20;;
5811;SDS011;2932;52.400;9.558;2023-11-21T05:57:27;16.53;;;8.23;;
5811;SDS011;2932;52.400;9.558;2023-11-21T05:59:53;12.97;;;8.20;;
5811;SDS011;2932;52.400;9.558;2023-11-21T06:02:18;15.33;;;7.77;;
5811;SDS011;2932;52.400;9.558;2023-11-21T06:04:44;15.10;;;7.90;;
5811;SDS011;2932;52.400;9.558;2023-11-21T06:07:09;11.83;;;7.63;;
5811;SDS011;2932;52.400;9.558;2023-11-21T06:09:35;15.20;;;9.00;;
5811;SDS011;2932;52.400;9.558;2023-11-21T06:12:00;13.77;;;8.87;;
5811;SDS011;2932;52.400;9.558;2023-11-21T06:14:26;14.10;;;9.40;;
5811;SDS011;2932;52.400;9.558;2023-11-21T06:16:51;14.60;;;8.23;;
5811;SDS011;2932;52.400;9.558;2023-11-21T06:19:17;15.53;;;8.40;;
5811;SDS011;2932;52.400;9.558;2023-11-21T06:21:45;12.67;;;8.53;;
5811;SDS011;2932;52.400;9.558;2023-11-21T06:24:11;14.60;;;8.93;;
5811;SDS011;2932;52.400;9.558;2023-11-21T06:26:37;10.47;;;7.73;;
5811;SDS011;2932;52.400;9.558;2023-11-21T06:29:02;12.23;;;8.20;;
5811;SDS011;2932;52.400;9.558;2023-11-21T06:31:27;12.37;;;7.93;;
5811;SDS011;2932;52.400;9.558;2023-11-21T06:33:54;14.60;;;8.87;;
5811;SDS011;2932;52.400;9.558;2023-11-21T06:36:19;15.57;;;8.80;;
5811;SDS011;2932;52.400;9.558;2023-11-21T06:38:44;10.87;;;7.40;;
5811;SDS011;2932;52.400;9.558;2023-11-21T06:41:10;13.27;;;7.90;;
5811;SDS011;2932;52.400;9.558;2023-11-21T06:43:38;13.73;;;7.97;;
5811;SDS011;2932;52.400;9.558;2023-11-21T06:46:04;11.47;;;7.10;;
5811;SDS011;2932;52.400;9.558;2023-11-21T06:48:29;12.07;;;7.37;;
5811;SDS011;2932;52.400;9.558;2023-11-21T06:50:55;11.47;;;7.23;;
5811;SDS011;2932;52.400;9.558;2023-11-21T06:53:20;12.27;;;7.37;;
5811;SDS011;2932;52.400;9.558;2023-11-21T06:55:45;11.20;;;7.43;;
5811;SDS011;2932;52.400;9.558;2023-11-21T06:58:11;9.27;;;6.80;;
5811;SDS011;2932;52.400;9.558;2023-11-21T07:00:36;6.77;;;4.77;;
5811;SDS011;2932;52.400;9.558;2023-11-21T07:03:01;4.70;;;3.57;;
5811;SDS011;2932;52.400;9.558;2023-11-21T07:05:27;4.57;;;2.67;;
5811;SDS011;2932;52.400;9.558;2023-11-21T07:07:52;4.13;;;2.90;;
5811;SDS011;2932;52.400;9.558;2023-11-21T07:10:19;2.57;;;2.10;;
5811;SDS011;2932;52.400;9.558;2023-11-21T07:12:44;3.60;;;2.40;;
5811;SDS011;2932;52.400;9.558;2023-11-21T07:15:10;4.20;;;1.93;;
5811;SDS011;2932;52.400;9.558;2023-11-21T07:17:35;3.57;;;2.10;;
5811;SDS011;2932;52.400;9.558;2023-11-21T07:20:02;2.53;;;2.30;;
5811;SDS011;2932;52.400;9.558;2023-11-21T07:22:28;2.63;;;2.13;;
5811;SDS011;2932;52.400;9.558;2023-11-21T07:24:53;4.20;;;2.33;;
5811;SDS011;2932;52.400;9.558;2023-11-21T07:27:18;5.90;;;2.33;;
5811;SDS011;2932;52.400;9.558;2023-11-21T07:29:44;4.73;;;2.67;;
5811;SDS011;2932;52.400;9.558;2023-11-21T07:32:09;4.43;;;2.60;;
5811;SDS011;2932;52.400;9.558;2023-11-21T07:34:35;3.90;;;2.80;;
5811;SDS011;2932;52.400;9.558;2023-11-21T07:37:01;5.07;;;2.23;;
5811;SDS011;2932;52.400;9.558;2023-11-21T07:39:27;4.10;;;2.17;;
5811;SDS011;2932;52.400;9.558;2023-11-21T07:41:53;3.20;;;2.33;;
5811;SDS011;2932;52.400;9.558;2023-11-21T07:44:19;3.00;;;2.53;;
5811;SDS011;2932;52.400;9.558;2023-11-21T07:46:45;4.70;;;2.90;;
5811;SDS011;2932;52.400;9.558;2023-11-21T07:49:10;3.70;;;2.87;;
5811;SDS011;2932;52.400;9.558;2023-11-21T07:51:36;4.37;;;3.27;;
5811;SDS011;2932;52.400;9.558;2023-11-21T07:54:01;3.23;;;2.90;;
5811;SDS011;2932;52.400;9.558;2023-11-21T07:56:26;3.67;;;3.30;;
5811;SDS011;2932;52.400;9.558;2023-11-21T07:58:52;3.77;;;3.37;;
5811;SDS011;2932;52.400;9.558;2023-11-21T08:01:17;5.67;;;3.63;;
5811;SDS011;2932;52.400;9.558;2023-11-21T08:03:43;4.83;;;3.93;;
5811;SDS011;2932;52.400;9.558;2023-11-21T08:06:09;6.60;;;3.90;;
5811;SDS011;2932;52.400;9.558;2023-11-21T08:08:34;6.13;;;4.17;;
5811;SDS011;2932;52.400;9.558;2023-11-21T08:11:00;5.67;;;4.17;;
5811;SDS011;2932;52.400;9.558;2023-11-21T08:13:26;6.10;;;4.30;;
5811;SDS011;2932;52.400;9.558;2023-11-21T08:15:56;5.20;;;4.47;;
5811;SDS011;2932;52.400;9.558;2023-11-21T08:18:26;5.43;;;4.00;;
5811;SDS011;2932;52.400;9.558;2023-11-21T08:20:51;5.43;;;4.00;;
5811;SDS011;2932;52.400;9.558;2023-11-21T08:23:17;6.30;;;4.80;;
5811;SDS011;2932;52.400;9.558;2023-11-21T08:25:45;6.07;;;4.60;;
5811;SDS011;2932;52.400;9.558;2023-11-21T08:28:11;6.30;;;4.80;;
5811;SDS011;2932;52.400;9.558;2023-11-21T08:30:39;6.10;;;4.57;;
5811;SDS011;2932;52.400;9.558;2023-11-21T08:33:06;6.40;;;4.67;;
5811;SDS011;2932;52.400;9.558;2023-11-21T08:35:33;7.33;;;5.33;;
5811;SDS011;2932;52.400;9.558;2023-11-21T08:37:59;7.90;;;5.23;;
5811;SDS011;2932;52.400;9.558;2023-11-21T08:40:24;8.90;;;6.40;;
5811;SDS011;2932;52.400;9.558;2023-11-21T08:42:50;8.67;;;5.80;;
5811;SDS011;2932;52.400;9.558;2023-11-21T08:45:17;8.47;;;5.50;;
5811;SDS011;2932;52.400;9.558;2023-11-21T08:47:43;6.43;;;4.90;;
5811;SDS011;2932;52.400;9.558;2023-11-21T08:50:09;6.37;;;5.17;;
5811;SDS011;2932;52.400;9.558;2023-11-21T08:52:37;6.17;;;4.63;;
5811;SDS011;2932;52.400;9.558;2023-11-21T08:55:02;6.73;;;4.57;;
5811;SDS011;2932;52.400;9.558;2023-11-21T08:57:33;7.40;;;5.00;;
5811;SDS011;2932;52.400;9.558;2023-11-21T08:59:59;9.03;;;5.10;;
5811;SDS011;2932;52.400;9.558;2023-11-21T09:02:27;7.30;;;4.97;;
5811;SDS011;2932;52.400;9.558;2023-11-21T09:04:53;6.23;;;4.60;;
5811;SDS011;2932;52.400;9.558;2023-11-21T09:07:18;7.87;;;4.50;;
5811;SDS011;2932;52.400;9.558;2023-11-21T09:09:45;6.97;;;4.87;;
5811;SDS011;2932;52.400;9.558;2023-11-21T09:12:14;6.23;;;5.03;;
5811;SDS011;2932;52.400;9.558;2023-11-21T09:14:40;7.77;;;4.93;;
5811;SDS011;2932;52.400;9.558;2023-11-21T09:17:06;7.73;;;5.23;;
5811;SDS011;2932;52.400;9.558;2023-11-21T09:19:38;7.07;;;5.20;;
5811;SDS011;2932;52.400;9.558;2023-11-21T09:22:04;6.53;;;5.03;;
5811;SDS011;2932;52.400;9.558;2023-11-21T09:24:32;7.90;;;5.17;;
5811;SDS011;2932;52.400;9.558;2023-11-21T09:26:58;6.67;;;4.60;;
5811;SDS011;2932;52.400;9.558;2023-11-21T09:29:25;7.77;;;5.50;;
5811;SDS011;2932;52.400;9.558;2023-11-21T09:31:51;5.70;;;4.70;;
5811;SDS011;2932;52.400;9.558;2023-11-21T09:34:16;6.20;;;4.77;;
5811;SDS011;2932;52.400;9.558;2023-11-21T09:36:45;7.43;;;4.93;;
5811;SDS011;2932;52.400;9.558;2023-11-21T09:39:10;6.97;;;4.50;;
5811;SDS011;2932;52.400;9.558;2023-11-21T09:41:49;7.83;;;5.17;;
5811;SDS011;2932;52.400;9.558;2023-11-21T09:44:22;7.00;;;4.70;;
5811;SDS011;2932;52.400;9.558;2023-11-21T09:46:54;6.27;;;4.63;;
5811;SDS011;2932;52.400;9.558;2023-11-21T09:49:24;6.17;;;4.53;;
5811;SDS011;2932;52.400;9.558;2023-11-21T09:51:51;6.07;;;4.93;;
5811;SDS011;2932;52.400;9.558;2023-11-21T09:54:20;6.47;;;4.30;;
5811;SDS011;2932;52.400;9.558;2023-11-21T09:56:46;5.50;;;4.30;;
5811;SDS011;2932;52.400;9.558;2023-11-21T09:59:13;8.13;;;5.63;;
5811;SDS011;2932;52.400;9.558;2023-11-21T10:01:40;5.90;;;4.70;;
5811;SDS011;2932;52.400;9.558;2023-11-21T10:04:07;8.13;;;5.00;;
5811;SDS011;2932;52.400;9.558;2023-11-21T10:06:37;6.07;;;5.00;;
5811;SDS011;2932;52.400;9.558;2023-11-21T10:09:04;6.70;;;4.30;;
5811;SDS011;2932;52.400;9.558;2023-11-21T10:11:36;7.60;;;5.17;;
5811;SDS011;2932;52.400;9.558;2023-11-21T10:14:06;7.10;;;5.37;;
5811;SDS011;2932;52.400;9.558;2023-11-21T10:16:37;9.93;;;5.50;;
5811;SDS011;2932;52.400;9.558;2023-11-21T10:19:04;6.27;;;4.60;;
5811;SDS011;2932;52.400;9.558;2023-11-21T10:21:32;6.60;;;4.77;;
5811;SDS011;2932;52.400;9.558;2023-11-21T10:23:58;7.43;;;4.30;;
5811;SDS011;2932;52.400;9.558;2023-11-21T10:26:23;5.23;;;4.60;;
5811;SDS011;2932;52.400;9.558;2023-11-21T10:28:59;5.90;;;4.33;;
5811;SDS011;2932;52.400;9.558;2023-11-21T10:31:31;8.27;;;4.37;;
5811;SDS011;2932;52.400;9.558;2023-11-21T10:34:13;6.10;;;4.20;;
5811;SDS011;2932;52.400;9.558;2023-11-21T10:36:44;6.10;;;4.57;;
5811;SDS011;2932;52.400;9.558;2023-11-21T10:39:14;6.87;;;4.07;;
5811;SDS011;2932;52.400;9.558;2023-11-21T10:41:44;7.47;;;4.10;;
5811;SDS011;2932;52.400;9.558;2023-11-21T10:44:13;5.87;;;3.90;;
5811;SDS011;2932;52.400;9.558;2023-11-21T10:46:45;6.23;;;4.00;;
5811;SDS011;2932;52.400;9.558;2023-11-21T10:49:16;5.07;;;3.90;;
5811;SDS011;2932;52.400;9.558;2023-11-21T10:51:45;4.97;;;4.10;;
5811;SDS011;2932;52.400;9.558;2023-11-21T10:54:17;4.93;;;4.13;;
5811;SDS011;2932;52.400;9.558;2023-11-21T10:56:46;4.97;;;3.77;;
5811;SDS011;2932;52.400;9.558;2023-11-21T10:59:16;4.83;;;3.90;;
5811;SDS011;2932;52.400;9.558;2023-11-21T11:01:42;4.70;;;3.90;;
5811;SDS011;2932;52.400;9.558;2023-11-21T11:04:11;5.47;;;3.80;;
5811;SDS011;2932;52.400;9.558;2023-11-21T11:06:44;4.37;;;3.50;;
5811;SDS011;2932;52.400;9.558;2023-11-21T11:09:16;5.17;;;3.50;;
5811;SDS011;2932;52.400;9.558;2023-11-21T11:11:42;4.90;;;3.60;;
5811;SDS011;2932;52.400;9.558;2023-11-21T11:14:12;4.77;;;3.87;;
5811;SDS011;2932;52.400;9.558;2023-11-21T11:16:39;4.47;;;3.40;;
5811;SDS011;2932;52.400;9.558;2023-11-21T11:19:09;5.70;;;3.57;;
5811;SDS011;2932;52.400;9.558;2023-11-21T11:24:42;4.13;;;3.13;;
5811;SDS011;2932;52.400;9.558;2023-11-21T11:30:26;3.20;;;2.83;;
5811;SDS011;2932;52.400;9.558;2023-11-21T11:38:15;4.13;;;3.17;;
5811;SDS011;2932;52.400;9.558;2023-11-21T11:40:44;3.80;;;2.97;;
5811;SDS011;2932;52.400;9.558;2023-11-21T11:43:11;4.97;;;3.00;;
5811;SDS011;2932;52.400;9.558;2023-11-21T11:45:36;4.00;;;2.83;;
5811;SDS011;2932;52.400;9.558;2023-11-21T11:48:06;4.40;;;3.10;;
5811;SDS011;2932;52.400;9.558;2023-11-21T11:50:32;4.37;;;3.40;;
5811;SDS011;2932;52.400;9.558;2023-11-21T11:53:11;3.47;;;3.03;;
5811;SDS011;2932;52.400;9.558;2023-11-21T11:55:38;3.77;;;3.23;;
5811;SDS011;2932;52.400;9.558;2023-11-21T11:58:04;5.67;;;4.00;;
5811;SDS011;2932;52.400;9.558;2023-11-21T12:00:34;5.40;;;3.30;;
5811;SDS011;2932;52.400;9.558;2023-11-21T12:03:03;4.73;;;3.73;;
5811;SDS011;2932;52.400;9.558;2023-11-21T12:05:30;4.50;;;3.60;;
5811;SDS011;2932;52.400;9.558;2023-11-21T12:07:59;5.93;;;3.77;;
5811;SDS011;2932;52.400;9.558;2023-11-21T12:10:26;4.20;;;2.63;;
5811;SDS011;2932;52.400;9.558;2023-11-21T12:13:14;3.67;;;2.97;;
5811;SDS011;2932;52.400;9.558;2023-11-21T12:15:38;3.10;;;2.63;;
5811;SDS011;2932;52.400;9.558;2023-11-21T12:18:06;4.93;;;3.00;;
5811;SDS011;2932;52.400;9.558;2023-11-21T12:20:32;3.83;;;2.80;;
5811;SDS011;2932;52.400;9.558;2023-11-21T12:23:03;5.50;;;3.27;;
5811;SDS011;2932;52.400;9.558;2023-11-21T12:25:29;3.60;;;3.10;;
5811;SDS011;2932;52.400;9.558;2023-11-21T12:27:57;3.70;;;3.30;;
5811;SDS011;2932;52.400;9.558;2023-11-21T12:30:29;4.53;;;2.80;;
5811;SDS011;2932;52.400;9.558;2023-11-21T12:32:57;3.33;;;2.87;;
5811;SDS011;2932;52.400;9.558;2023-11-21T12:35:24;3.67;;;3.07;;
5811;SDS011;2932;52.400;9.558;2023-11-21T12:37:51;4.27;;;3.20;;
5811;SDS011;2932;52.400;9.558;2023-11-21T12:40:18;4.13;;;3.50;;
5811;SDS011;2932;52.400;9.558;2023-11-21T12:42:45;5.03;;;3.10;;
5811;SDS011;2932;52.400;9.558;2023-11-21T12:48:15;3.77;;;3.13;;
5811;SDS011;2932;52.400;9.558;2023-11-21T12:50:36;6.03;;;3.43;;
5811;SDS011;2932;52.400;9.558;2023-11-21T12:53:10;5.47;;;3.40;;
5811;SDS011;2932;52.400;9.558;2023-11-21T12:55:41;5.07;;;3.80;;
5811;SDS011;2932;52.400;9.558;2023-11-21T12:58:14;4.43;;;3.80;;
5811;SDS011;2932;52.400;9.558;2023-11-21T13:00:42;5.17;;;3.50;;
5811;SDS011;2932;52.400;9.558;2023-11-21T13:03:13;4.93;;;3.50;;
5811;SDS011;2932;52.400;9.558;2023-11-21T13:05:45;4.63;;;3.90;;
5811;SDS011;2932;52.400;9.558;2023-11-21T13:08:15;4.97;;;4.23;;
5811;SDS011;2932;52.400;9.558;2023-11-21T13:10:44;3.60;;;3.07;;
5811;SDS011;2932;52.400;9.558;2023-11-21T13:13:12;4.70;;;3.40;;
5811;SDS011;2932;52.400;9.558;2023-11-21T13:15:49;3.83;;;3.40;;
5811;SDS011;2932;52.400;9.558;2023-11-21T13:18:26;3.87;;;3.20;;
5811;SDS011;2932;52.400;9.558;2023-11-21T13:20:53;4.07;;;3.27;;
5811;SDS011;2932;52.400;9.558;2023-11-21T13:23:20;4.43;;;3.73;;
5811;SDS011;2932;52.400;9.558;2023-11-21T13:25:45;5.87;;;3.63;;
5811;SDS011;2932;52.400;9.558;2023-11-21T13:28:12;4.77;;;3.70;;
5811;SDS011;2932;52.400;9.558;2023-11-21T13:30:40;6.43;;;3.80;;
5811;SDS011;2932;52.400;9.558;2023-11-21T13:33:06;4.70;;;3.73;;
5811;SDS011;2932;52.400;9.558;2023-11-21T13:35:39;4.70;;;3.60;;
5811;SDS011;2932;52.400;9.558;2023-11-21T13:38:11;4.07;;;3.40;;
5811;SDS011;2932;52.400;9.558;2023-11-21T13:40:39;4.20;;;3.53;;
5811;SDS011;2932;52.400;9.558;2023-11-21T13:43:11;4.07;;;3.30;;
5811;SDS011;2932;52.400;9.558;2023-11-21T13:45:38;7.40;;;3.97;;
5811;SDS011;2932;52.400;9.558;2023-11-21T13:48:04;4.90;;;4.00;;
5811;SDS011;2932;52.400;9.558;2023-11-21T13:50:35;4.80;;;3.87;;
5811;SDS011;2932;52.400;9.558;2023-11-21T13:53:01;4.20;;;3.40;;
5811;SDS011;2932;52.400;9.558;2023-11-21T13:55:36;5.53;;;3.00;;
5811;SDS011;2932;52.400;9.558;2023-11-21T13:58:02;4.33;;;3.13;;
5811;SDS011;2932;52.400;9.558;2023-11-21T14:00:34;4.77;;;3.20;;
5811;SDS011;2932;52.400;9.558;2023-11-21T14:03:06;4.07;;;2.53;;
5811;SDS011;2932;52.400;9.558;2023-11-21T14:05:42;4.60;;;3.17;;
5811;SDS011;2932;52.400;9.558;2023-11-21T14:08:08;3.60;;;2.57;;
5811;SDS011;2932;52.400;9.558;2023-11-21T14:10:37;3.37;;;2.53;;
5811;SDS011;2932;52.400;9.558;2023-11-21T14:13:08;4.90;;;3.00;;
5811;SDS011;2932;52.400;9.558;2023-11-21T14:15:35;3.00;;;2.67;;
5811;SDS011;2932;52.400;9.558;2023-11-21T14:18:07;3.53;;;2.80;;
5811;SDS011;2932;52.400;9.558;2023-11-21T14:20:35;5.83;;;3.17;;
5811;SDS011;2932;52.400;9.558;2023-11-21T14:23:04;4.53;;;3.30;;
5811;SDS011;2932;52.400;9.558;2023-11-21T14:25:34;3.53;;;3.13;;
5811;SDS011;2932;52.400;9.558;2023-11-21T14:28:04;2.87;;;2.60;;
5811;SDS011;2932;52.400;9.558;2023-11-21T14:30:31;3.97;;;3.10;;
5811;SDS011;2932;52.400;9.558;2023-11-21T14:32:58;4.63;;;2.90;;
5811;SDS011;2932;52.400;9.558;2023-11-21T14:35:26;4.00;;;2.77;;
5811;SDS011;2932;52.400;9.558;2023-11-21T14:37:52;4.20;;;2.80;;
5811;SDS011;2932;52.400;9.558;2023-11-21T14:40:18;5.40;;;3.07;;
5811;SDS011;2932;52.400;9.558;2023-11-21T14:42:49;4.20;;;3.10;;
5811;SDS011;2932;52.400;9.558;2023-11-21T14:45:20;4.97;;;2.90;;
5811;SDS011;2932;52.400;9.558;2023-11-21T14:47:51;4.90;;;3.43;;
5811;SDS011;2932;52.400;9.558;2023-11-21T14:50:40;4.07;;;3.27;;
5811;SDS011;2932;52.400;9.558;2023-11-21T14:53:07;4.17;;;2.80;;
5811;SDS011;2932;52.400;9.558;2023-11-21T14:55:34;3.60;;;2.97;;
5811;SDS011;2932;52.400;9.558;2023-11-21T14:58:20;3.47;;;2.67;;
5811;SDS011;2932;52.400;9.558;2023-11-21T15:01:00;4.63;;;2.97;;
5811;SDS011;2932;52.400;9.558;2023-11-21T15:03:26;4.60;;;3.07;;
5811;SDS011;2932;52.400;9.558;2023-11-21T15:05:57;4.20;;;2.77;;
5811;SDS011;2932;52.400;9.558;2023-11-21T15:08:44;5.23;;;3.20;;
5811;SDS011;2932;52.400;9.558;2023-11-21T15:11:13;7.07;;;3.10;;
5811;SDS011;2932;52.400;9.558;2023-11-21T15:13:41;3.90;;;3.10;;
5811;SDS011;2932;52.400;9.558;2023-11-21T15:16:07;3.17;;;2.60;;
5811;SDS011;2932;52.400;9.558;2023-11-21T15:18:33;6.47;;;2.97;;
5811;SDS011;2932;52.400;9.558;2023-11-21T15:21:00;6.00;;;3.47;;